createdAt,value
2023-02-16T00:00:28.241Z,26.38
2023-02-16T00:01:34.955Z,29.05
2023-02-16T00:02:37.032Z,23.35
2023-02-16T00:03:41.779Z,27.58
2023-02-16T00:04:44.046Z,23.90
2023-02-16T00:05:49.664Z,25.50
2023-02-16T00:06:53.208Z,26.10
2023-02-16T00:07:58.768Z,24.60
2023-02-16T00:09:03.409Z,29.17
2023-02-16T00:10:10.208Z,23.23
2023-02-16T00:11:33.984Z,23.45
2023-02-16T00:12:51.132Z,23.77
2023-02-16T00:13:55.856Z,24.23
2023-02-16T00:15:01.302Z,25.02
2023-02-16T00:16:03.428Z,23.98
2023-02-16T00:17:08.895Z,24.10
2023-02-16T00:18:18.732Z,23.23
2023-02-16T00:19:25.428Z,25.20
2023-02-16T00:20:27.500Z,22.88
2023-02-16T00:21:32.343Z,24.00
2023-02-16T00:22:34.310Z,22.42
2023-02-16T00:23:38.923Z,22.17
2023-02-16T00:24:41.009Z,24.95
2023-02-16T00:25:48.340Z,23.30
2023-02-16T00:26:50.584Z,24.42
2023-02-16T00:27:55.653Z,25.23
2023-02-16T00:28:58.710Z,25.23
2023-02-16T00:30:05.648Z,25.55
2023-02-16T00:31:09.788Z,23.30
2023-02-16T00:32:15.863Z,25.25
2023-02-16T00:33:21.499Z,21.42
2023-02-16T00:34:33.518Z,22.58
2023-02-16T00:35:35.593Z,25.88
2023-02-16T00:36:40.332Z,22.15
2023-02-16T00:37:42.813Z,22.42
2023-02-16T00:38:47.507Z,24.13
2023-02-16T00:39:49.687Z,25.08
2023-02-16T00:40:56.854Z,24.50
2023-02-16T00:42:01.599Z,26.30
2023-02-16T00:43:06.973Z,24.83
2023-02-16T00:44:15.768Z,22.80
2023-02-16T00:45:22.867Z,24.98
2023-02-16T00:46:25.059Z,20.10
2023-02-16T00:47:35.300Z,18.08
2023-02-16T00:48:37.418Z,24.83
2023-02-16T00:49:42.071Z,19.77
2023-02-16T00:50:44.231Z,21.10
2023-02-16T00:51:49.306Z,19.42
2023-02-16T00:52:52.086Z,20.90
2023-02-16T00:53:56.763Z,22.27
2023-02-16T00:55:00.295Z,21.25
2023-02-16T00:56:08.225Z,22.90
2023-02-16T00:57:16.772Z,20.70
2023-02-16T00:58:27.374Z,22.70
2023-02-16T00:59:29.738Z,21.40
2023-02-16T01:00:38.538Z,20.95
2023-02-16T01:01:40.723Z,21.67
2023-02-16T01:02:46.050Z,20.02
2023-02-16T01:03:48.596Z,21.30
2023-02-16T01:04:53.479Z,20.85
2023-02-16T01:06:11.005Z,22.45
2023-02-16T01:07:29.823Z,24.13
2023-02-16T01:08:46.965Z,19.13
2023-02-16T01:10:04.123Z,21.30
2023-02-16T01:11:12.713Z,23.23
2023-02-16T01:12:18.498Z,19.85
2023-02-16T01:13:23.750Z,22.48
2023-02-16T01:14:26.432Z,21.17
2023-02-16T01:15:31.132Z,19.60
2023-02-16T01:16:36.836Z,21.08
2023-02-16T01:17:41.813Z,20.13
2023-02-16T01:18:44.113Z,22.15
2023-02-16T01:19:48.819Z,19.02
2023-02-16T01:20:51.025Z,23.80
2023-02-16T01:21:55.692Z,24.42
2023-02-16T01:22:57.816Z,26.70
2023-02-16T01:24:02.457Z,25.95
2023-02-16T01:25:05.178Z,23.67
2023-02-16T01:26:17.211Z,24.90
2023-02-16T01:27:19.550Z,24.92
2023-02-16T01:28:26.438Z,22.08
2023-02-16T01:29:28.567Z,24.15
2023-02-16T01:30:33.234Z,23.35
2023-02-16T01:31:35.344Z,21.15
2023-02-16T01:32:40.079Z,22.20
2023-02-16T01:33:43.234Z,23.55
2023-02-16T01:34:47.939Z,19.90
2023-02-16T01:35:50.946Z,23.08
2023-02-16T01:36:55.670Z,22.73
2023-02-16T01:37:57.704Z,23.70
2023-02-16T01:39:02.376Z,24.23
2023-02-16T01:40:05.605Z,22.15
2023-02-16T01:41:25.284Z,22.45
2023-02-16T01:42:39.777Z,22.10
2023-02-16T01:43:47.696Z,19.40
2023-02-16T01:44:55.633Z,21.65
2023-02-16T01:46:03.651Z,22.50
2023-02-16T01:47:20.433Z,21.38
2023-02-16T01:48:27.233Z,23.48
2023-02-16T01:49:31.992Z,23.48
2023-02-16T01:50:44.746Z,20.70
2023-02-16T01:51:55.718Z,21.45
2023-02-16T01:53:00.412Z,25.00
2023-02-16T01:54:15.339Z,23.52
2023-02-16T01:55:20.652Z,27.27
2023-02-16T01:56:36.055Z,21.52
2023-02-16T01:57:43.785Z,23.20
2023-02-16T01:58:53.486Z,21.95
2023-02-16T02:00:06.349Z,21.38
2023-02-16T02:01:46.587Z,21.40
2023-02-16T02:02:52.896Z,20.95
2023-02-16T02:04:10.019Z,22.45
2023-02-16T02:05:39.783Z,20.42
2023-02-16T02:06:42.251Z,19.65
2023-02-16T02:07:51.443Z,20.15
2023-02-16T02:08:59.408Z,20.05
2023-02-16T02:10:09.305Z,19.40
2023-02-16T02:11:19.675Z,22.10
2023-02-16T02:12:32.675Z,23.25
2023-02-16T02:13:44.698Z,18.70
2023-02-16T02:14:48.192Z,21.42
2023-02-16T02:15:53.060Z,20.48
2023-02-16T02:16:57.168Z,24.10
2023-02-16T02:18:01.874Z,22.60
2023-02-16T02:19:03.975Z,22.73
2023-02-16T02:20:15.266Z,22.73
2023-02-16T02:21:49.926Z,24.88
2023-02-16T02:23:34.134Z,25.92
2023-02-16T02:25:19.377Z,19.55
2023-02-16T02:26:51.292Z,22.38
2023-02-16T02:28:04.966Z,22.02
2023-02-16T02:29:27.461Z,26.42
2023-02-16T02:30:47.322Z,25.15
2023-02-16T02:31:57.767Z,23.85
2023-02-16T02:33:21.258Z,43.38
2023-02-16T02:34:33.021Z,26.85
2023-02-16T02:35:49.915Z,22.92
2023-02-16T02:37:05.377Z,24.20
2023-02-16T02:38:19.356Z,23.27
2023-02-16T02:39:33.100Z,28.33
2023-02-16T02:40:51.365Z,22.67
2023-02-16T02:42:04.241Z,27.33
2023-02-16T02:43:19.381Z,25.15
2023-02-16T02:44:24.159Z,20.80
2023-02-16T02:45:33.934Z,24.48
2023-02-16T02:46:38.053Z,24.35
2023-02-16T02:47:44.904Z,20.95
2023-02-16T02:48:46.998Z,25.10
2023-02-16T02:49:53.438Z,25.48
2023-02-16T02:51:13.648Z,25.50
2023-02-16T02:52:18.439Z,28.65
2023-02-16T02:53:21.456Z,28.17
2023-02-16T02:54:43.404Z,28.17
2023-02-16T02:57:23.939Z,24.60
2023-02-16T02:58:48.945Z,27.02
2023-02-16T03:00:13.380Z,31.10
2023-02-16T03:01:21.497Z,24.70
2023-02-16T03:02:26.153Z,27.42
2023-02-16T03:03:33.927Z,36.45
2023-02-16T03:04:36.353Z,22.65
2023-02-16T03:05:46.918Z,22.85
2023-02-16T03:06:53.042Z,29.42
2023-02-16T03:08:06.582Z,24.08
2023-02-16T03:09:11.678Z,27.55
2023-02-16T03:10:30.743Z,28.92
2023-02-16T03:11:48.565Z,28.98
2023-02-16T03:12:53.472Z,28.90
2023-02-16T03:14:04.552Z,27.55
2023-02-16T03:15:09.113Z,29.65
2023-02-16T03:16:18.970Z,32.50
2023-02-16T03:17:41.276Z,25.67
2023-02-16T03:19:00.889Z,22.88
2023-02-16T03:20:21.944Z,32.17
2023-02-16T03:21:41.820Z,26.55
2023-02-16T03:23:00.205Z,26.83
2023-02-16T03:24:21.080Z,24.45
2023-02-16T03:25:41.641Z,31.65
2023-02-16T03:26:59.300Z,24.50
2023-02-16T03:28:21.290Z,27.60
2023-02-16T03:29:29.855Z,24.75
2023-02-16T03:30:31.984Z,24.48
2023-02-16T03:31:39.347Z,23.75
2023-02-16T03:32:41.725Z,24.27
2023-02-16T03:33:46.772Z,22.95
2023-02-16T03:34:49.033Z,25.02
2023-02-16T03:35:55.629Z,26.90
2023-02-16T03:37:00.818Z,25.08
2023-02-16T03:38:05.594Z,25.42
2023-02-16T03:39:08.096Z,22.92
2023-02-16T03:40:28.569Z,25.63
2023-02-16T03:41:36.519Z,29.42
2023-02-16T03:42:38.621Z,25.75
2023-02-16T03:43:43.265Z,24.92
2023-02-16T03:44:47.988Z,23.60
2023-02-16T03:45:52.838Z,28.65
2023-02-16T03:46:54.806Z,26.15
2023-02-16T03:47:59.443Z,26.05
2023-02-16T03:49:01.451Z,31.80
2023-02-16T03:50:06.143Z,29.55
2023-02-16T03:51:08.134Z,29.33
2023-02-16T03:52:13.216Z,31.02
2023-02-16T03:53:17.930Z,43.00
2023-02-16T03:54:22.899Z,29.58
2023-02-16T03:55:24.919Z,32.42
2023-02-16T03:56:29.818Z,30.98
2023-02-16T03:57:31.860Z,29.23
2023-02-16T03:58:36.437Z,27.88
2023-02-16T03:59:38.472Z,42.20
2023-02-16T04:00:46.015Z,31.40
2023-02-16T04:01:48.070Z,31.27
2023-02-16T04:02:52.696Z,27.20
2023-02-16T04:03:54.680Z,33.63
2023-02-16T04:04:59.324Z,30.00
2023-02-16T04:06:01.489Z,29.88
2023-02-16T04:08:58.360Z,31.48
2023-02-16T04:10:00.377Z,27.48
2023-02-16T04:11:25.047Z,28.52
2023-02-16T04:12:39.005Z,26.23
2023-02-16T04:13:40.984Z,26.83
2023-02-16T04:14:45.623Z,24.92
2023-02-16T04:15:50.343Z,24.73
2023-02-16T04:16:57.992Z,29.00
2023-02-16T04:18:00.396Z,25.05
2023-02-16T04:19:06.286Z,24.42
2023-02-16T04:20:10.616Z,33.42
2023-02-16T04:21:15.226Z,25.17
2023-02-16T04:22:17.233Z,26.13
2023-02-16T04:23:21.874Z,26.52
2023-02-16T04:24:23.979Z,27.17
2023-02-16T04:25:28.981Z,27.33
2023-02-16T04:26:31.074Z,22.90
2023-02-16T04:27:35.762Z,22.67
2023-02-16T04:28:37.841Z,26.35
2023-02-16T04:29:42.454Z,22.98
2023-02-16T04:30:44.523Z,21.88
2023-02-16T04:31:52.093Z,24.13
2023-02-16T04:32:54.479Z,23.67
2023-02-16T04:33:59.057Z,22.92
2023-02-16T04:35:01.226Z,22.55
2023-02-16T04:36:05.804Z,21.30
2023-02-16T04:37:10.559Z,24.95
2023-02-16T04:38:12.589Z,20.70
2023-02-16T04:39:17.309Z,21.40
2023-02-16T04:40:19.602Z,24.23
2023-02-16T04:41:24.236Z,23.90
2023-02-16T04:42:26.374Z,24.65
2023-02-16T04:43:31.065Z,23.10
2023-02-16T04:44:33.124Z,20.75
2023-02-16T04:45:37.860Z,26.38
2023-02-16T04:46:39.896Z,23.27
2023-02-16T04:47:47.141Z,21.65
2023-02-16T04:48:49.312Z,25.40
2023-02-16T04:49:54.224Z,23.27
2023-02-16T04:50:56.180Z,22.02
2023-02-16T04:52:01.109Z,22.05
2023-02-16T04:53:03.049Z,25.45
2023-02-16T04:54:07.727Z,20.95
2023-02-16T04:55:11.239Z,21.20
2023-02-16T04:56:16.353Z,29.15
2023-02-16T04:57:19.470Z,24.85
2023-02-16T04:58:24.374Z,22.60
2023-02-16T04:59:26.752Z,23.60
2023-02-16T05:00:32.030Z,21.02
2023-02-16T05:01:34.030Z,21.38
2023-02-16T05:02:38.546Z,22.98
2023-02-16T05:03:43.212Z,21.70
2023-02-16T05:04:47.834Z,22.52
2023-02-16T05:05:50.010Z,21.52
2023-02-16T05:06:54.609Z,22.58
2023-02-16T05:07:56.632Z,23.83
2023-02-16T05:09:01.270Z,21.38
2023-02-16T05:10:03.430Z,21.80
2023-02-16T05:11:20.545Z,23.42
2023-02-16T05:12:37.650Z,22.30
2023-02-16T05:13:54.733Z,20.52
2023-02-16T05:14:59.300Z,21.58
2023-02-16T05:16:01.381Z,23.23
2023-02-16T05:17:06.206Z,22.65
2023-02-16T05:18:08.385Z,25.65
2023-02-16T05:19:15.748Z,23.40
2023-02-16T05:20:18.283Z,24.20
2023-02-16T05:21:35.885Z,27.77
2023-02-16T05:22:40.498Z,27.13
2023-02-16T05:23:42.551Z,27.25
2023-02-16T05:24:47.825Z,26.75
2023-02-16T05:25:49.829Z,26.23
2023-02-16T05:26:54.414Z,26.90
2023-02-16T05:27:56.377Z,27.42
2023-02-16T05:29:01.911Z,26.20
2023-02-16T05:30:04.639Z,26.98
2023-02-16T05:31:09.246Z,34.83
2023-02-16T05:32:11.678Z,24.45
2023-02-16T05:33:16.557Z,22.10
2023-02-16T05:34:21.281Z,22.58
2023-02-16T05:35:25.792Z,20.58
2023-02-16T05:36:27.811Z,22.48
2023-02-16T05:37:32.470Z,20.42
2023-02-16T05:38:34.432Z,19.13
2023-02-16T05:39:39.037Z,19.30
2023-02-16T05:40:41.016Z,21.83
2023-02-16T05:41:45.631Z,18.15
2023-02-16T05:42:47.697Z,18.30
2023-02-16T05:43:52.952Z,17.90
2023-02-16T05:44:54.941Z,17.63
2023-02-16T05:45:59.529Z,17.17
2023-02-16T05:47:01.589Z,17.13
2023-02-16T05:48:06.285Z,18.02
2023-02-16T05:49:09.326Z,17.10
2023-02-16T05:50:16.679Z,17.67
2023-02-16T05:51:19.584Z,20.33
2023-02-16T05:52:24.238Z,18.63
2023-02-16T05:53:26.318Z,17.90
2023-02-16T05:54:30.998Z,18.60
2023-02-16T05:55:32.944Z,18.05
2023-02-16T05:56:37.465Z,18.00
2023-02-16T05:57:39.495Z,18.80
2023-02-16T05:58:44.056Z,18.98
2023-02-16T05:59:48.683Z,17.63
2023-02-16T06:02:29.481Z,22.10
2023-02-16T06:03:31.898Z,21.13
2023-02-16T06:04:36.479Z,24.05
2023-02-16T06:05:41.068Z,23.42
2023-02-16T06:06:45.682Z,22.50
2023-02-16T06:07:47.710Z,24.10
2023-02-16T06:08:52.318Z,23.92
2023-02-16T06:09:54.398Z,23.90
2023-02-16T06:10:59.351Z,26.23
2023-02-16T06:12:01.444Z,28.92
2023-02-16T06:13:06.033Z,24.98
2023-02-16T06:14:11.115Z,25.58
2023-02-16T06:17:14.295Z,27.08
2023-02-16T06:18:16.271Z,26.15
2023-02-16T06:19:22.127Z,28.27
2023-02-16T06:20:24.095Z,26.73
2023-02-16T06:21:32.128Z,25.85
2023-02-16T06:22:36.682Z,26.52
2023-02-16T06:23:38.648Z,24.67
2023-02-16T06:24:43.255Z,24.13
2023-02-16T06:25:48.809Z,24.73
2023-02-16T06:26:53.325Z,23.45
2023-02-16T06:27:57.011Z,24.45
2023-02-16T06:29:01.794Z,22.95
2023-02-16T06:30:04.994Z,22.60
2023-02-16T06:31:09.876Z,22.38
2023-02-16T06:32:14.510Z,22.65
2023-02-16T06:33:16.547Z,22.90
2023-02-16T06:34:21.189Z,21.52
2023-02-16T06:35:23.295Z,22.60
2023-02-16T06:36:28.244Z,23.17
2023-02-16T06:37:32.866Z,21.42
2023-02-16T06:38:37.497Z,20.75
2023-02-16T06:39:42.177Z,20.70
2023-02-16T06:40:44.121Z,19.90
2023-02-16T06:41:48.730Z,20.42
2023-02-16T06:43:02.509Z,17.52
2023-02-16T06:44:06.633Z,18.55
2023-02-16T06:45:12.906Z,15.82
2023-02-16T06:46:14.899Z,19.17
2023-02-16T06:47:19.477Z,17.27
2023-02-16T06:48:21.461Z,18.00
2023-02-16T06:49:27.829Z,16.33
2023-02-16T06:50:30.097Z,16.17
2023-02-16T06:51:35.108Z,16.92
2023-02-16T06:52:39.824Z,16.80
2023-02-16T06:53:44.443Z,16.90
2023-02-16T06:54:46.428Z,17.20
2023-02-16T06:55:53.368Z,17.45
2023-02-16T06:56:55.378Z,17.17
2023-02-16T06:57:59.918Z,17.80
2023-02-16T06:59:02.376Z,17.23
2023-02-16T07:00:08.263Z,18.38
2023-02-16T07:01:10.439Z,19.83
2023-02-16T07:02:15.052Z,22.10
2023-02-16T07:03:17.071Z,21.38
2023-02-16T07:04:21.644Z,18.38
2023-02-16T07:05:23.655Z,19.42
2023-02-16T07:06:31.033Z,19.75
2023-02-16T07:07:32.998Z,19.27
2023-02-16T07:08:40.214Z,20.00
2023-02-16T07:09:42.193Z,19.83
2023-02-16T07:10:50.089Z,19.60
2023-02-16T07:11:52.614Z,18.88
2023-02-16T07:12:57.297Z,22.38
2023-02-16T07:14:01.819Z,19.60
2023-02-16T07:15:04.483Z,20.90
2023-02-16T07:16:10.160Z,21.60
2023-02-16T07:17:14.771Z,19.13
2023-02-16T07:18:19.376Z,21.33
2023-02-16T07:19:21.308Z,19.25
2023-02-16T07:20:26.639Z,19.23
2023-02-16T07:21:31.302Z,19.63
2023-02-16T07:22:33.353Z,18.98
2023-02-16T07:23:40.702Z,17.33
2023-02-16T07:24:42.668Z,18.05
2023-02-16T07:25:47.194Z,18.38
2023-02-16T07:26:51.953Z,17.83
2023-02-16T07:27:54.848Z,17.10
2023-02-16T07:28:59.386Z,18.40
2023-02-16T07:30:01.448Z,17.88
2023-02-16T07:31:10.777Z,16.70
2023-02-16T07:32:12.961Z,18.00
2023-02-16T07:33:18.341Z,17.38
2023-02-16T07:34:23.017Z,17.63
2023-02-16T07:35:24.966Z,22.13
2023-02-16T07:36:29.628Z,18.08
2023-02-16T07:37:31.632Z,17.60
2023-02-16T07:38:36.607Z,18.77
2023-02-16T07:39:41.195Z,18.85
2023-02-16T07:40:45.764Z,18.90
2023-02-16T07:41:50.339Z,21.90
2023-02-16T07:42:52.445Z,22.20
2023-02-16T07:43:57.055Z,19.48
2023-02-16T07:45:00.344Z,18.70
2023-02-16T07:46:05.535Z,19.50
2023-02-16T07:47:10.092Z,16.15
2023-02-16T07:48:14.716Z,17.02
2023-02-16T07:49:16.809Z,17.27
2023-02-16T07:50:21.558Z,16.88
2023-02-16T07:51:26.983Z,15.95
2023-02-16T07:52:31.700Z,15.88
2023-02-16T07:53:36.302Z,14.55
2023-02-16T07:54:40.932Z,16.38
2023-02-16T07:55:46.841Z,14.38
2023-02-16T07:56:51.436Z,14.43
2023-02-16T07:57:57.011Z,15.60
2023-02-16T07:59:03.700Z,15.18
2023-02-16T08:00:10.184Z,15.15
2023-02-16T08:01:15.428Z,15.18
2023-02-16T08:02:20.921Z,16.38
2023-02-16T08:03:23.396Z,15.70
2023-02-16T08:04:28.056Z,15.13
2023-02-16T08:05:30.291Z,17.30
2023-02-16T08:06:36.787Z,15.18
2023-02-16T08:07:40.037Z,16.23
2023-02-16T08:08:45.212Z,16.50
2023-02-16T08:09:52.458Z,14.65
2023-02-16T08:10:54.820Z,16.15
2023-02-16T08:11:59.523Z,15.90
2023-02-16T08:13:02.327Z,15.93
2023-02-16T08:14:07.005Z,16.63
2023-02-16T08:15:10.178Z,15.00
2023-02-16T08:16:16.500Z,15.52
2023-02-16T08:17:21.263Z,16.90
2023-02-16T08:18:23.412Z,14.15
2023-02-16T08:19:29.298Z,16.52
2023-02-16T08:20:48.216Z,14.43
2023-02-16T08:23:00.108Z,16.95
2023-02-16T08:24:03.845Z,14.02
2023-02-16T08:25:11.857Z,14.20
2023-02-16T08:26:17.249Z,16.70
2023-02-16T08:27:21.855Z,16.08
2023-02-16T08:28:28.883Z,14.63
2023-02-16T08:29:34.385Z,13.98
2023-02-16T08:30:36.478Z,14.23
2023-02-16T08:31:42.102Z,13.05
2023-02-16T08:32:50.936Z,14.70
2023-02-16T08:33:53.808Z,15.63
2023-02-16T08:34:58.706Z,15.95
2023-02-16T08:36:00.683Z,14.65
2023-02-16T08:37:05.266Z,17.98
2023-02-16T08:38:09.064Z,14.95
2023-02-16T08:39:19.051Z,16.48
2023-02-16T08:40:24.977Z,21.45
2023-02-16T08:41:34.344Z,16.27
2023-02-16T08:42:37.120Z,12.20
2023-02-16T08:43:41.821Z,13.93
2023-02-16T08:44:47.267Z,13.35
2023-02-16T08:45:49.616Z,14.15
2023-02-16T08:46:55.948Z,14.70
2023-02-16T08:47:57.901Z,12.35
2023-02-16T08:49:03.637Z,14.65
2023-02-16T08:50:07.840Z,13.57
2023-02-16T08:51:17.748Z,14.70
2023-02-16T08:52:19.985Z,14.32
2023-02-16T08:53:28.003Z,16.02
2023-02-16T08:54:33.814Z,14.25
2023-02-16T08:55:39.254Z,11.27
2023-02-16T08:56:46.252Z,12.45
2023-02-16T08:57:50.862Z,14.07
2023-02-16T08:58:53.084Z,12.52
2023-02-16T09:00:10.007Z,13.30
2023-02-16T09:01:15.640Z,14.20
2023-02-16T09:02:18.278Z,17.67
2023-02-16T09:03:22.941Z,16.40
2023-02-16T09:04:29.300Z,14.40
2023-02-16T09:05:31.558Z,17.75
2023-02-16T09:06:40.356Z,18.52
2023-02-16T09:07:42.981Z,14.05
2023-02-16T09:08:47.620Z,15.75
2023-02-16T09:09:53.070Z,14.48
2023-02-16T09:11:01.858Z,14.02
2023-02-16T09:12:06.974Z,14.30
2023-02-16T09:13:10.786Z,12.38
2023-02-16T09:14:15.634Z,12.95
2023-02-16T09:15:17.765Z,13.20
2023-02-16T09:16:24.651Z,15.27
2023-02-16T09:17:28.407Z,14.27
2023-02-16T09:18:33.450Z,15.10
2023-02-16T09:19:38.578Z,15.27
2023-02-16T09:20:42.972Z,12.38
2023-02-16T09:21:50.956Z,12.30
2023-02-16T09:22:53.169Z,14.88
2023-02-16T09:23:59.389Z,12.00
2023-02-16T09:25:03.997Z,12.63
2023-02-16T09:26:12.011Z,13.35
2023-02-16T09:27:16.816Z,13.35
2023-02-16T09:28:21.640Z,14.02
2023-02-16T09:29:26.267Z,18.30
2023-02-16T09:30:28.463Z,15.27
2023-02-16T09:31:35.857Z,15.00
2023-02-16T09:32:38.080Z,14.48
2023-02-16T09:33:43.647Z,13.88
2023-02-16T09:34:51.421Z,12.75
2023-02-16T09:35:54.745Z,17.05
2023-02-16T09:36:59.366Z,14.35
2023-02-16T09:38:02.596Z,15.15
2023-02-16T09:39:08.230Z,16.08
2023-02-16T09:40:16.500Z,14.32
2023-02-16T09:41:34.935Z,13.02
2023-02-16T09:42:51.482Z,14.25
2023-02-16T09:43:58.353Z,15.00
2023-02-16T09:45:09.837Z,12.73
2023-02-16T09:46:18.916Z,12.32
2023-02-16T09:47:29.524Z,16.08
2023-02-16T09:48:39.087Z,14.80
2023-02-16T09:49:44.376Z,16.40
2023-02-16T09:50:54.275Z,13.50
2023-02-16T09:52:05.690Z,11.77
2023-02-16T09:53:18.531Z,11.50
2023-02-16T09:54:34.849Z,12.13
2023-02-16T09:55:47.493Z,14.00
2023-02-16T09:57:01.592Z,12.55
2023-02-16T09:58:14.851Z,12.32
2023-02-16T09:59:35.998Z,13.32
2023-02-16T10:00:52.314Z,13.07
2023-02-16T10:02:05.831Z,11.73
2023-02-16T10:03:24.542Z,11.23
2023-02-16T10:04:44.217Z,14.75
2023-02-16T10:05:56.704Z,12.25
2023-02-16T10:07:12.708Z,12.30
2023-02-16T10:08:24.942Z,13.48
2023-02-16T10:09:29.716Z,14.90
2023-02-16T10:10:41.552Z,14.63
2023-02-16T10:11:54.535Z,11.00
2023-02-16T10:13:09.387Z,15.52
2023-02-16T10:14:21.232Z,10.77
2023-02-16T10:15:29.642Z,13.45
2023-02-16T10:16:40.029Z,16.48
2023-02-16T10:17:49.724Z,11.90
2023-02-16T10:18:56.000Z,11.35
2023-02-16T10:20:06.232Z,12.70
2023-02-16T10:21:17.970Z,12.77
2023-02-16T10:23:38.183Z,15.38
2023-02-16T10:24:52.072Z,12.20
2023-02-16T10:26:02.718Z,12.10
2023-02-16T10:27:14.449Z,15.32
2023-02-16T10:28:24.514Z,10.45
2023-02-16T10:29:29.593Z,13.98
2023-02-16T10:30:32.954Z,13.25
2023-02-16T10:31:43.818Z,11.00
2023-02-16T10:32:56.473Z,12.93
2023-02-16T10:34:12.126Z,11.80
2023-02-16T10:35:20.765Z,9.40
2023-02-16T10:36:32.009Z,10.98
2023-02-16T10:37:54.140Z,13.68
2023-02-16T10:39:02.929Z,12.27
2023-02-16T10:40:23.554Z,12.93
2023-02-16T10:41:35.658Z,12.30
2023-02-16T10:42:44.059Z,12.20
2023-02-16T10:43:57.292Z,13.00
2023-02-16T10:45:06.502Z,10.00
2023-02-16T10:46:13.782Z,10.50
2023-02-16T10:47:28.317Z,10.02
2023-02-16T10:48:33.039Z,17.67
2023-02-16T10:49:37.247Z,17.65
2023-02-16T10:50:45.167Z,13.80
2023-02-16T10:51:52.916Z,11.40
2023-02-16T10:53:02.328Z,13.38
2023-02-16T10:54:08.490Z,11.13
2023-02-16T10:55:14.641Z,9.27
2023-02-16T10:56:34.561Z,9.38
2023-02-16T10:57:39.099Z,12.68
2023-02-16T10:58:44.744Z,15.88
2023-02-16T10:59:52.615Z,10.10
2023-02-16T11:01:03.622Z,8.95
2023-02-16T11:02:19.093Z,11.88
2023-02-16T11:03:27.414Z,10.90
2023-02-16T11:04:35.790Z,13.98
2023-02-16T11:05:42.400Z,13.98
2023-02-16T11:07:06.075Z,11.45
2023-02-16T11:08:14.285Z,9.32
2023-02-16T11:09:16.497Z,8.77
2023-02-16T11:10:24.599Z,8.15
2023-02-16T11:11:30.507Z,11.27
2023-02-16T11:12:38.012Z,10.32
2023-02-16T11:13:43.125Z,14.48
2023-02-16T11:14:54.395Z,11.65
2023-02-16T11:16:01.762Z,11.25
2023-02-16T11:17:14.948Z,10.65
2023-02-16T11:18:33.227Z,8.48
2023-02-16T11:19:38.210Z,11.15
2023-02-16T11:20:55.571Z,12.43
2023-02-16T11:21:58.880Z,6.82
2023-02-16T11:23:17.482Z,8.75
2023-02-16T11:24:28.964Z,8.45
2023-02-16T11:25:34.100Z,9.98
2023-02-16T11:26:36.189Z,16.63
2023-02-16T11:27:53.107Z,10.55
2023-02-16T11:29:20.485Z,7.75
2023-02-16T11:30:35.952Z,8.80
2023-02-16T11:31:39.960Z,12.98
2023-02-16T11:32:44.753Z,12.48
2023-02-16T11:34:03.304Z,12.25
2023-02-16T11:35:09.984Z,15.65
2023-02-16T11:36:28.675Z,8.27
2023-02-16T11:37:36.691Z,12.77
2023-02-16T11:38:39.160Z,12.55
2023-02-16T11:39:52.074Z,10.15
2023-02-16T11:40:54.558Z,8.90
2023-02-16T11:42:02.955Z,10.82
2023-02-16T11:43:08.506Z,12.25
2023-02-16T11:44:28.993Z,12.75
2023-02-16T11:45:38.585Z,13.32
2023-02-16T11:46:41.076Z,19.83
2023-02-16T11:47:45.935Z,11.90
2023-02-16T11:48:48.533Z,8.52
2023-02-16T11:50:09.657Z,9.73
2023-02-16T11:51:16.207Z,8.10
2023-02-16T11:52:27.466Z,14.13
2023-02-16T11:53:34.611Z,12.20
2023-02-16T11:54:39.186Z,13.98
2023-02-16T11:55:45.945Z,15.43
2023-02-16T11:57:02.572Z,13.02
2023-02-16T11:58:19.817Z,13.73
2023-02-16T11:59:25.012Z,8.73
2023-02-16T12:00:30.758Z,10.40
2023-02-16T12:01:47.962Z,15.50
2023-02-16T12:03:09.204Z,14.20
2023-02-16T12:04:31.484Z,12.70
2023-02-16T12:05:50.855Z,12.32
2023-02-16T12:07:08.608Z,670.40
2023-02-16T12:08:34.046Z,13.70
2023-02-16T12:09:49.779Z,17.65
2023-02-16T12:11:10.455Z,12.32
2023-02-16T12:12:20.046Z,11.45
2023-02-16T12:13:36.337Z,11.90
2023-02-16T12:14:52.842Z,17.23
2023-02-16T12:15:59.718Z,12.25
2023-02-16T12:17:18.239Z,10.48
2023-02-16T12:18:56.902Z,12.65
2023-02-16T12:20:15.144Z,15.18
2023-02-16T12:21:23.923Z,13.45
2023-02-16T12:22:36.356Z,10.38
2023-02-16T12:23:42.782Z,14.45
2023-02-16T12:24:58.764Z,16.92
2023-02-16T12:26:17.239Z,15.88
2023-02-16T12:27:33.857Z,27.60
2023-02-16T12:28:45.321Z,37.78
2023-02-16T12:30:01.380Z,48.53
2023-02-16T12:31:12.652Z,64.32
2023-02-16T12:32:37.815Z,72.40
2023-02-16T12:33:50.129Z,829.75
2023-02-16T12:35:03.364Z,799.90
2023-02-16T12:36:33.479Z,750.45
2023-02-16T12:37:43.122Z,253.40
2023-02-16T12:38:58.392Z,450.75
2023-02-16T12:40:14.197Z,621.28
2023-02-16T12:41:29.311Z,607.30
2023-02-16T12:42:46.938Z,627.95
2023-02-16T12:43:55.591Z,600.78
2023-02-16T12:45:04.671Z,617.55
2023-02-16T12:46:23.982Z,627.75
2023-02-16T12:47:37.824Z,673.72
2023-02-16T12:48:45.941Z,661.30
2023-02-16T12:49:56.027Z,649.88
2023-02-16T12:51:02.858Z,674.30
2023-02-16T12:52:14.638Z,673.55
2023-02-16T12:54:30.182Z,701.88
2023-02-16T12:55:41.087Z,676.95
2023-02-16T12:56:47.897Z,694.78
2023-02-16T12:57:59.869Z,735.20
2023-02-16T12:59:10.653Z,617.63
2023-02-16T13:00:24.121Z,715.10
2023-02-16T13:01:29.776Z,413.25
2023-02-16T13:02:43.252Z,592.28
2023-02-16T13:03:55.401Z,618.55
2023-02-16T13:05:03.442Z,734.05
2023-02-16T13:06:19.375Z,691.22
2023-02-16T13:07:32.822Z,738.10
2023-02-16T13:08:41.694Z,269.92
2023-02-16T13:09:55.032Z,92.30
2023-02-16T13:11:03.593Z,16.85
2023-02-16T13:12:18.883Z,16.67
2023-02-16T13:13:25.285Z,10.68
2023-02-16T13:14:33.920Z,9.82
2023-02-16T13:15:41.904Z,15.70
2023-02-16T13:16:51.069Z,24.85
2023-02-16T13:18:01.853Z,13.88
2023-02-16T13:19:06.651Z,10.83
2023-02-16T13:20:15.104Z,10.70
2023-02-16T13:21:50.417Z,11.82
2023-02-16T13:23:26.374Z,10.43
2023-02-16T13:24:46.542Z,8.40
2023-02-16T13:26:18.134Z,17.40
2023-02-16T13:27:35.066Z,10.80
2023-02-16T13:29:05.309Z,11.70
2023-02-16T13:30:50.348Z,9.43
2023-02-16T13:32:09.083Z,13.55
2023-02-16T13:33:37.101Z,12.05
2023-02-16T13:35:07.192Z,19.25
2023-02-16T13:36:32.641Z,18.65
2023-02-16T13:37:55.698Z,10.77
2023-02-16T13:39:43.254Z,12.98
2023-02-16T13:41:14.374Z,13.93
2023-02-16T13:42:52.875Z,9.10
2023-02-16T13:44:00.850Z,10.07
2023-02-16T13:45:06.066Z,12.35
2023-02-16T13:46:18.988Z,10.85
2023-02-16T13:47:29.796Z,10.50
2023-02-16T13:48:42.133Z,8.68
2023-02-16T13:49:44.553Z,14.68
2023-02-16T13:50:49.167Z,19.48
2023-02-16T13:51:51.303Z,16.30
2023-02-16T13:52:57.619Z,10.20
2023-02-16T13:54:04.307Z,10.65
2023-02-16T13:55:24.821Z,9.95
2023-02-16T13:56:37.983Z,10.93
2023-02-16T13:57:57.309Z,16.35
2023-02-16T13:59:22.767Z,10.90
2023-02-16T14:00:37.275Z,12.68
2023-02-16T14:01:43.162Z,14.40
2023-02-16T14:02:59.374Z,13.30
2023-02-16T14:04:07.463Z,15.25
2023-02-16T14:05:12.866Z,12.80
2023-02-16T14:06:37.118Z,10.68
2023-02-16T14:07:39.458Z,12.85
2023-02-16T14:08:44.550Z,14.27
2023-02-16T14:09:48.580Z,11.68
2023-02-16T14:11:09.570Z,12.65
2023-02-16T14:12:25.194Z,7.57
2023-02-16T14:13:29.893Z,10.75
2023-02-16T14:14:39.173Z,10.40
2023-02-16T14:15:55.243Z,15.48
2023-02-16T14:17:18.718Z,14.95
2023-02-16T14:18:26.166Z,12.25
2023-02-16T14:19:38.501Z,17.45
2023-02-16T14:20:43.162Z,15.95
2023-02-16T14:21:47.342Z,15.25
2023-02-16T14:22:57.572Z,19.52
2023-02-16T14:24:23.027Z,21.35
2023-02-16T14:25:42.506Z,11.77
2023-02-16T14:26:59.659Z,21.33
2023-02-16T14:28:07.053Z,12.85
2023-02-16T14:29:17.368Z,14.50
2023-02-16T14:30:28.292Z,13.48
2023-02-16T14:31:44.321Z,12.65
2023-02-16T14:32:53.687Z,16.27
2023-02-16T14:34:06.675Z,12.07
2023-02-16T14:35:21.063Z,12.18
2023-02-16T14:36:27.260Z,14.73
2023-02-16T14:37:39.546Z,11.75
2023-02-16T14:38:49.635Z,16.65
2023-02-16T14:40:06.880Z,16.20
2023-02-16T14:41:16.908Z,13.60
2023-02-16T14:42:28.264Z,11.07
2023-02-16T14:43:37.230Z,12.43
2023-02-16T14:44:57.293Z,12.57
2023-02-16T14:46:34.362Z,12.55
2023-02-16T14:47:55.886Z,11.73
2023-02-16T14:49:26.311Z,12.38
2023-02-16T14:50:47.679Z,12.57
2023-02-16T14:52:30.045Z,15.88
2023-02-16T14:54:11.540Z,13.38